Station: Padthaway

  Atmospheric Gas Attenuation - ITU Rec 676-11   --------------- db/100km ---------------
Date Time Temp RH % AH g/m3 Dew Point Wind Direction Speed kph Gust kph Barometer mB Rainfall Since 9am 24GHz 47GHz 76GHz 122GHz 134GHz 241GHz
15 00:40 7.9 93 7.64 6.8 15 19 1013.1 2.6 17.8 26.0 38.8 101.7 92.7 317.8
15 00:30 7.8 93 7.59 6.7 15 19 1013.1 2.6 17.7 26.0 38.6 101.3 92.2 315.8
15 00:20 7.8 94 7.67 6.9 17 20 1013.1 2.6 17.9 26.1 39.0 102.2 93.3 319.7
15 00:10 7.8 94 7.67 6.9 15 17 1013.1 2.6 17.9 26.1 39.0 102.2 93.3 319.7
15 00:00 7.7 94 7.63 6.8 19 22 1013.1 2.6 17.8 26.1 38.8 101.8 92.8 318.2
14 23:50 7.8 94 7.67 6.9 19 20 1013.1 2.6 17.9 26.1 39.0 102.2 93.3 319.7
14 23:40 7.8 95 7.76 7.1 17 19 1013.1 2.6 18.1 26.3 39.3 103.2 94.5 324.1
14 23:30 7.8 95 7.76 7.1 15 19 1013.1 2.6 18.1 26.3 39.3 103.2 94.5 324.1
14 23:20 7.8 96 7.84 7.2 17 19 1013.1 2.6 18.2 26.4 39.7 104.1 95.6 328.0
14 23:10 7.9 97 7.97 7.5 15 17 1013.1 2.6 18.5 26.6 40.2 105.4 97.3 333.9
14 23:00 7.9 97 7.97 7.5 13 13 1013.1 2.6 18.5 26.6 40.2 105.4 97.3 333.9
14 22:50 7.9 96 7.89 7.3 13 13 1013.1 2.6 18.3 26.5 39.8 104.5 96.2 330.0
14 22:40 7.8 95 7.76 7.1 11 13 1013.1 2.6 18.1 26.3 39.3 103.2 94.5 324.1
14 22:30 7.9 95 7.81 7.1 13 15 1013.1 2.6 18.2 26.3 39.5 103.6 95.1 326.1
14 22:20 7.9 95 7.81 7.1 11 13 1013.1 2.6 18.2 26.3 39.5 103.6 95.1 326.1
14 22:10 8 94 7.77 7.1 15 17 1013.1 2.6 18.1 26.2 39.3 103.0 94.4 323.7
14 22:00 8.1 93 7.74 7 13 19 1013.1 2.6 18.0 26.1 39.1 102.5 93.9 321.8
14 21:50 8.1 92 7.66 6.9 13 13 1013.1 2.6 17.8 26.0 38.8 101.6 92.8 318.0
14 21:40 8.1 92 7.66 6.9 17 19 1013.1 2.6 17.8 26.0 38.8 101.6 92.8 318.0
14 21:30 8.1 93 7.74 7 17 20 1013.1 2.6 18.0 26.1 39.1 102.5 93.9 321.8
14 21:20 8.1 93 7.74 7 17 19 1013.1 2.6 18.0 26.1 39.1 102.5 93.9 321.8
14 21:10 8.1 94 7.82 7.2 15 17 1013.1 2.6 18.2 26.3 39.4 103.4 95.0 325.7
14 21:00 8.1 93 7.74 7 19 22 1013.1 2.6 18.0 26.1 39.1 102.5 93.9 321.8
14 20:50 8.1 94 7.82 7.2 13 17 1013.1 2.6 18.2 26.3 39.4 103.4 95.0 325.7
14 20:40 8.1 94 7.82 7.2 15 17 1013.1 2.6 18.2 26.3 39.4 103.4 95.0 325.7
14 20:30 8.1 93 7.74 7 17 19 1013.1 2.6 18.0 26.1 39.1 102.5 93.9 321.8
14 20:20 8.1 93 7.74 7 19 20 1013.1 2.6 18.0 26.1 39.1 102.5 93.9 321.8
14 20:10 8.2 92 7.71 7 15 17 1013.1 2.6 17.9 26.1 38.9 102.1 93.3 320.0
14 20:00 8.2 93 7.79 7.1 20 26 1013.1 2.6 18.1 26.2 39.3 103.0 94.4 323.9
14 19:50 8.3 93 7.84 7.2 22 24 1013.1 2.6 18.2 26.2 39.4 103.4 95.0 325.9
14 19:40 8.3 94 7.93 7.4 22 26 1013.1 2.6 18.4 26.4 39.8 104.4 96.3 330.2
14 19:30 8.4 94 7.98 7.5 20 28 1013.1 2.6 18.5 26.5 40.0 104.8 96.8 332.2
14 19:20 8.5 95 8.11 7.7 17 19 1013.1 2.6 18.8 26.6 40.5 106.2 98.5 338.1
14 19:10 8.5 94 8.03 7.6 19 20 1013.1 2.6 18.6 26.5 40.1 105.3 97.4 334.2
14 19:00 8.5 94 8.03 7.6 19 24 1013.1 2.6 18.6 26.5 40.1 105.3 97.4 334.2
14 18:50 8.6 93 7.99 7.5 20 24 1013.1 2.6 18.5 26.4 39.9 104.7 96.7 331.9
14 18:40 8.6 94 8.08 7.7 17 20 1013.1 2.6 18.7 26.6 40.3 105.7 98.0 336.2
14 18:30 8.6 94 8.08 7.7 22 28 1013.1 2.6 18.7 26.6 40.3 105.7 98.0 336.2
14 18:20 8.7 94 8.13 7.8 24 28 1013.1 2.6 18.8 26.6 40.4 106.1 98.5 338.2
14 18:10 8.7 96 8.31 8.1 19 22 1013.1 2.6 19.2 26.9 41.2 108.2 101.0 347.1
14 18:00 8.7 97 8.39 8.3 17 19 1013.1 2.6 19.4 27.1 41.6 109.1 102.2 351.0
14 17:50 8.7 97 8.39 8.3 19 20 1013.1 2.6 19.4 27.1 41.6 109.1 102.2 351.0
14 17:40 8.8 98 8.53 8.5 19 20 1013.1 2.6 19.7 27.3 42.1 110.5 104.0 357.4
14 17:30 8.7 99 8.56 8.6 17 19 1013.1 2.6 19.8 27.4 42.3 111.0 104.6 359.4
14 17:20 8.7 99 8.56 8.6 20 24 1013.1 2.6 19.8 27.4 42.3 111.0 104.6 359.4
14 17:10 8.6 99 8.51 8.5 26 30 1013.1 2.6 19.7 27.3 42.1 110.6 104.0 357.4
14 17:00 8.7 99 8.56 8.6 20 26 1013.1 2.6 19.8 27.4 42.3 111.0 104.6 359.4
14 16:50 8.7 99 8.56 8.6 22 26 1013.1 2.6 19.8 27.4 42.3 111.0 104.6 359.4
14 16:40 8.7 99 8.56 8.6 20 24 1013.1 2.6 19.8 27.4 42.3 111.0 104.6 359.4
14 16:30 8.7 99 8.56 8.6 20 28 1013.1 2.6 19.8 27.4 42.3 111.0 104.6 359.4
14 16:20 8.8 99 8.62 8.7 20 22 1013.1 2.6 19.9 27.4 42.5 111.6 105.3 361.9
14 16:10 8.8 99 8.62 8.7 22 24 1013.1 2.6 19.9 27.4 42.5 111.6 105.3 361.9
14 16:00 8.9 99 8.68 8.8 20 22 1013.1 2.6 20.0 27.5 42.7 112.1 106.0 364.4
14 15:50 8.9 99 8.68 8.8 19 20 1013.1 2.6 20.0 27.5 42.7 112.1 106.0 364.4
14 15:40 8.8 99 8.62 8.7 20 22 1013.1 2.6 19.9 27.4 42.5 111.6 105.3 361.9
14 15:30 8.8 99 8.62 8.7 19 22 1013.1 2.6 19.9 27.4 42.5 111.6 105.3 361.9
14 15:20 8.9 99 8.68 8.8 19 24 1013.1 2.6 20.0 27.5 42.7 112.1 106.0 364.4
14 15:10 8.9 99 8.68 8.8 15 17 1013.1 2.6 20.0 27.5 42.7 112.1 106.0 364.4
14 15:00 8.9 99 8.68 8.8 19 26 1013.1 2.6 20.0 27.5 42.7 112.1 106.0 364.4
14 14:50 9 99 8.73 8.9 20 24 1013.1 2.6 20.1 27.6 42.9 112.6 106.6 366.4
14 14:40 9 99 8.73 8.9 19 22 1013.1 2.6 20.1 27.6 42.9 112.6 106.6 366.4
14 14:30 8.9 99 8.68 8.8 17 20 1013.1 2.6 20.0 27.5 42.7 112.1 106.0 364.4
14 14:20 8.9 99 8.68 8.8 15 19 1013.1 2.6 20.0 27.5 42.7 112.1 106.0 364.4
14 14:10 9 99 8.73 8.9 19 24 1013.1 2.6 20.1 27.6 42.9 112.6 106.6 366.4
14 14:00 8.9 99 8.68 8.8 22 26 1013.1 2.6 20.0 27.5 42.7 112.1 106.0 364.4
14 13:50 8.9 99 8.68 8.8 20 26 1013.1 2.6 20.0 27.5 42.7 112.1 106.0 364.4
14 13:40 8.9 99 8.68 8.8 19 24 1013.1 2.6 20.0 27.5 42.7 112.1 106.0 364.4
14 13:30 9 99 8.73 8.9 19 20 1013.1 2.6 20.1 27.6 42.9 112.6 106.6 366.4
14 13:20 8.9 99 8.68 8.8 19 24 1013.1 2.4 20.0 27.5 42.7 112.1 106.0 364.4
14 13:10 9 99 8.73 8.9 22 24 1013.1 2.4 20.1 27.6 42.9 112.6 106.6 366.4
14 13:00 8.9 99 8.68 8.8 24 28 1013.1 2.4 20.0 27.5 42.7 112.1 106.0 364.4
14 12:50 8.9 99 8.68 8.8 22 24 1013.1 2.2 20.0 27.5 42.7 112.1 106.0 364.4
14 12:40 9 99 8.73 8.9 20 22 1013.1 2.2 20.1 27.6 42.9 112.6 106.6 366.4
14 12:30 9 99 8.73 8.9 22 28 1013.1 2 20.1 27.6 42.9 112.6 106.6 366.4
14 12:20 9.1 99 8.79 9 17 19 1013.1 2 20.2 27.6 43.1 113.1 107.3 368.9
14 12:10 9 99 8.73 8.9 20 24 1013.1 2 20.1 27.6 42.9 112.6 106.6 366.4
14 12:00 9 99 8.73 8.9 22 30 1013.1 2 20.1 27.6 42.9 112.6 106.6 366.4
14 11:50 9 99 8.73 8.9 20 32 1013.1 1.8 20.1 27.6 42.9 112.6 106.6 366.4
14 11:40 8.8 99 8.62 8.7 22 26 1013.1 1.8 19.9 27.4 42.5 111.6 105.3 361.9
14 11:30 8.6 99 8.51 8.5 24 30 1013.1 1.6 19.7 27.3 42.1 110.6 104.0 357.4
14 11:20 8.7 99 8.56 8.6 19 26 1013.1 1.4 19.8 27.4 42.3 111.0 104.6 359.4
14 11:10 8.5 99 8.46 8.4 24 26 1013.1 1.2 19.5 27.2 42.0 110.2 103.4 355.4
14 11:00 8.6 99 8.51 8.5 20 24 1013.1 1 19.7 27.3 42.1 110.6 104.0 357.4
14 10:50 8.5 99 8.46 8.4 20 22 1013.1 0.8 19.5 27.2 42.0 110.2 103.4 355.4
14 10:40 8.4 99 8.4 8.3 20 26 1013.1 0.8 19.4 27.2 41.8 109.6 102.7 352.8
14 10:30 8.3 99 8.35 8.2 24 26 1013.1 0.8 19.3 27.1 41.6 109.2 102.1 350.8
14 10:20 8.3 99 8.35 8.2 19 20 1013.1 0.6 19.3 27.1 41.6 109.2 102.1 350.8
14 10:10 8.2 99 8.29 8.1 19 24 1013.1 0.6 19.2 27.0 41.4 108.6 101.4 348.3
14 10:00 8.3 99 8.35 8.2 22 26 1013.1 0.4 19.3 27.1 41.6 109.2 102.1 350.8
14 09:50 8.3 99 8.35 8.2 24 26 1013.1 0.4 19.3 27.1 41.6 109.2 102.1 350.8
14 09:40 8.4 99 8.4 8.3 19 22 1013.1 0.2 19.4 27.2 41.8 109.6 102.7 352.8
14 09:30 8.4 99 8.4 8.3 22 26 1013.1 0 19.4 27.2 41.8 109.6 102.7 352.8
14 09:20 8.3 99 8.35 8.2 19 22 1013.1 0 19.3 27.1 41.6 109.2 102.1 350.8
14 09:10 8.3 99 8.35 8.2 20 22 1013.1 0 19.3 27.1 41.6 109.2 102.1 350.8
14 09:00 8.3 99 8.35 8.2 19 24 1013.1 0 19.3 27.1 41.6 109.2 102.1 350.8
14 08:50 8.2 99 8.29 8.1 20 28 1013.1 8.2 19.2 27.0 41.4 108.6 101.4 348.3
14 08:40 8.2 99 8.29 8.1 24 30 1013.1 8.2 19.2 27.0 41.4 108.6 101.4 348.3
14 08:30 8.2 99 8.29 8.1 20 24 1013.1 8.2 19.2 27.0 41.4 108.6 101.4 348.3
14 08:20 8.2 99 8.29 8.1 20 28 1013.1 8.2 19.2 27.0 41.4 108.6 101.4 348.3
14 08:10 8.2 99 8.29 8.1 19 22 1013.1 8.2 19.2 27.0 41.4 108.6 101.4 348.3

Last Refresh: 15-Jun-2024 00:45:03

Bureau of Meteorology